Time;durP1;ratioP1;P1;durP2;ratioP2;P2;SDS_P1;SDS_P2;PMS_P1;PMS_P2;Temp;Humidity;BMP_temperature;BMP_pressure;BME280_temperature;BME280_humidity;BME280_pressure;Samples;Min_cycle;Max_cycle;Signal;HPM_P1;HPM_P2
2023/02/20 00:01:07;;;;;;;3.83;2.27;;;5.60;99.90;;;;;;5122510;27;20273;-58
2023/02/20 00:03:35;;;;;;;4.10;2.13;;;5.60;99.90;;;;;;5135741;27;20584;-58
2023/02/20 00:06:03;;;;;;;5.80;2.13;;;5.60;99.90;;;;;;5115099;28;20317;-58
2023/02/20 00:08:31;;;;;;;4.27;1.93;;;5.60;99.90;;;;;;5106428;28;20233;-58
2023/02/20 00:10:59;;;;;;;6.63;2.10;;;5.60;99.90;;;;;;5115014;28;20805;-58
2023/02/20 00:13:27;;;;;;;9.57;3.13;;;5.70;99.90;;;;;;5115408;28;20244;-59
2023/02/20 00:15:56;;;;;;;4.87;2.20;;;5.70;99.90;;;;;;5111346;27;20229;-58
2023/02/20 00:18:25;;;;;;;5.60;2.23;;;5.70;99.90;;;;;;5115157;28;20685;-58
2023/02/20 00:20:53;;;;;;;4.63;2.40;;;5.70;99.90;;;;;;5115402;28;20214;-58
2023/02/20 00:23:21;;;;;;;5.80;1.93;;;5.70;99.90;;;;;;5115347;28;20229;-58
2023/02/20 00:25:49;;;;;;;5.63;2.33;;;5.70;99.90;;;;;;5114912;28;20666;-58
2023/02/20 00:28:17;;;;;;;4.17;1.90;;;5.70;99.90;;;;;;5115235;28;20259;-58
2023/02/20 00:30:45;;;;;;;4.00;2.10;;;5.70;99.90;;;;;;5095941;28;20248;-58
2023/02/20 00:33:14;;;;;;;3.57;1.97;;;5.70;99.90;;;;;;5096534;28;20312;-58
2023/02/20 00:35:43;;;;;;;6.37;2.40;;;5.70;99.90;;;;;;5114575;28;20473;-58
2023/02/20 00:38:11;;;;;;;3.53;1.80;;;5.80;99.90;;;;;;5110825;28;20233;-58
2023/02/20 00:40:39;;;;;;;4.67;2.07;;;5.80;99.90;;;;;;5094489;28;20237;-57
2023/02/20 00:43:07;;;;;;;6.27;2.40;;;5.80;99.90;;;;;;5097870;27;20222;-59
2023/02/20 00:45:35;;;;;;;6.67;2.67;;;5.80;99.90;;;;;;5114167;28;20606;-58
2023/02/20 00:48:04;;;;;;;5.07;2.43;;;5.80;99.90;;;;;;5114402;28;20226;-58
2023/02/20 00:50:32;;;;;;;3.83;2.20;;;5.70;99.90;;;;;;5114324;28;20611;-59
2023/02/20 00:53:02;;;;;;;4.57;2.40;;;5.70;99.90;;;;;;5114494;28;20222;-58
2023/02/20 00:55:30;;;;;;;5.47;2.40;;;5.80;99.90;;;;;;5114530;28;20259;-58
2023/02/20 00:57:58;;;;;;;5.60;2.40;;;5.80;99.90;;;;;;5114432;28;20685;-58
2023/02/20 01:00:31;;;;;;;3.73;2.17;;;5.80;99.90;;;;;;5113690;28;20210;-58
2023/02/20 01:02:59;;;;;;;4.07;2.53;;;5.80;99.90;;;;;;5095804;28;20226;-58
2023/02/20 01:05:27;;;;;;;4.50;2.37;;;5.80;99.90;;;;;;5094144;28;20229;-58
2023/02/20 01:07:55;;;;;;;5.00;2.33;;;5.80;99.90;;;;;;5124327;27;20218;-58
2023/02/20 01:10:24;;;;;;;5.43;2.73;;;5.80;99.90;;;;;;5134760;27;20217;-58
2023/02/20 01:12:52;;;;;;;4.57;2.70;;;5.80;99.90;;;;;;5134849;27;20221;-58
2023/02/20 01:15:20;;;;;;;3.47;2.40;;;5.90;99.90;;;;;;5115925;27;20229;-58
2023/02/20 01:17:49;;;;;;;3.53;2.20;;;5.90;99.90;;;;;;5095498;28;20266;-58
2023/02/20 01:20:17;;;;;;;6.17;2.90;;;5.90;99.90;;;;;;5114011;28;20217;-58
2023/02/20 01:22:45;;;;;;;6.47;2.77;;;5.90;99.90;;;;;;5095488;28;20605;-59
2023/02/20 01:25:13;;;;;;;5.37;2.93;;;5.90;99.90;;;;;;5095705;28;20230;-58
2023/02/20 01:27:43;;;;;;;4.83;3.00;;;5.90;99.90;;;;;;5113676;28;20693;-58
2023/02/20 01:30:12;;;;;;;4.97;2.70;;;5.90;99.90;;;;;;5113586;28;20696;-58
2023/02/20 01:32:40;;;;;;;4.20;2.77;;;5.90;99.90;;;;;;5113437;28;20229;-58
2023/02/20 01:35:09;;;;;;;4.53;3.23;;;5.90;99.90;;;;;;5113658;28;20229;-58
2023/02/20 01:37:37;;;;;;;7.67;3.43;;;5.90;99.90;;;;;;5114043;28;20224;-58
2023/02/20 01:40:06;;;;;;;3.53;2.80;;;5.90;99.90;;;;;;5133568;27;20225;-58
2023/02/20 01:42:35;;;;;;;4.43;3.10;;;5.90;99.90;;;;;;5117583;27;20219;-58
2023/02/20 01:45:19;;;;;;;4.53;3.00;;;5.90;99.90;;;;;;5117651;27;20642;-58
2023/02/20 01:47:48;;;;;;;4.23;3.10;;;5.90;99.90;;;;;;5095123;28;20229;-58
2023/02/20 01:50:18;;;;;;;6.17;3.10;;;5.90;99.90;;;;;;5113657;28;20229;-58
2023/02/20 01:52:49;;;;;;;5.03;3.17;;;5.80;99.90;;;;;;5113244;28;20585;-58
2023/02/20 01:55:21;;;;;;;6.23;3.70;;;5.90;99.90;;;;;;5113414;28;20278;-59
2023/02/20 01:57:53;;;;;;;6.27;3.90;;;5.90;99.90;;;;;;5113285;28;20240;-58
2023/02/20 02:00:24;;;;;;;6.63;3.80;;;6.00;99.90;;;;;;5094346;28;20236;-58
2023/02/20 02:02:55;;;;;;;6.87;4.17;;;6.00;99.90;;;;;;5094934;28;20227;-58
2023/02/20 02:05:24;;;;;;;5.67;3.63;;;6.00;99.90;;;;;;5113107;28;20226;-58
2023/02/20 02:07:54;;;;;;;6.13;3.83;;;6.00;99.90;;;;;;5117457;27;20222;-59
2023/02/20 02:10:28;;;;;;;7.20;4.50;;;6.00;99.90;;;;;;5124772;27;20236;-58
2023/02/20 02:12:58;;;;;;;8.20;4.37;;;6.00;99.90;;;;;;5115057;28;20225;-58
2023/02/20 02:15:27;;;;;;;6.03;3.83;;;6.10;99.90;;;;;;5098978;28;20715;-58
2023/02/20 02:18:18;;;;;;;5.40;4.10;;;6.20;99.90;;;;;;5113308;28;20264;-58
2023/02/20 02:21:21;;;;;;;4.87;4.20;;;6.20;99.90;;;;;;5112697;28;20241;-58
2023/02/20 02:24:16;;;;;;;7.73;4.13;;;6.20;99.90;;;;;;5112956;28;20227;-58
2023/02/20 02:27:13;;;;;;;8.13;4.57;;;6.20;99.90;;;;;;5094798;28;20692;-58
2023/02/20 02:30:07;;;;;;;6.50;4.40;;;6.20;99.90;;;;;;5094775;28;20222;-58
2023/02/20 02:33:03;;;;;;;7.77;4.43;;;6.20;99.90;;;;;;5113452;28;20728;-59
2023/02/20 02:38:38;;;;;;;7.33;4.10;;;6.30;99.90;;;;;;5065505;27;20647;-60
2023/02/20 02:41:12;;;;;;;7.73;4.93;;;6.30;99.90;;;;;;5081034;28;20228;-60
2023/02/20 02:43:56;;;;;;;7.13;5.47;;;6.40;99.90;;;;;;5084762;28;20710;-60
2023/02/20 02:46:30;;;;;;;7.60;4.90;;;6.40;99.90;;;;;;5063613;28;20230;-60
2023/02/20 02:49:07;;;;;;;8.57;5.43;;;6.40;99.90;;;;;;5068559;28;20231;-60
2023/02/20 02:51:38;;;;;;;7.47;5.20;;;6.40;99.90;;;;;;5069760;28;20215;-60
2023/02/20 02:54:13;;;;;;;6.73;4.90;;;6.40;99.90;;;;;;5069848;28;20582;-60
2023/02/20 02:56:44;;;;;;;6.80;5.23;;;6.30;99.90;;;;;;5068248;28;20230;-59
2023/02/20 02:59:16;;;;;;;8.37;5.53;;;6.40;99.90;;;;;;5069712;28;20632;-60
2023/02/20 03:01:50;;;;;;;6.50;4.80;;;6.40;99.90;;;;;;5049944;28;20767;-61
2023/02/20 03:04:23;;;;;;;8.37;4.90;;;6.50;99.90;;;;;;5047667;28;20269;-60
2023/02/20 03:06:56;;;;;;;7.23;5.37;;;6.50;99.90;;;;;;5047811;28;20281;-60
2023/02/20 03:09:29;;;;;;;7.30;5.40;;;6.50;99.90;;;;;;5048364;28;20232;-60
2023/02/20 03:11:59;;;;;;;7.30;5.20;;;6.50;99.90;;;;;;5049721;28;20713;-60
2023/02/20 03:17:26;;;;;;;12.03;5.33;;;6.60;99.90;;;;;;5042621;28;20710;-59
2023/02/20 03:19:59;;;;;;;7.33;5.30;;;6.60;99.90;;;;;;5048107;28;20238;-60
2023/02/20 03:22:30;;;;;;;7.50;5.60;;;6.60;99.90;;;;;;5049193;28;20223;-60
2023/02/20 03:25:04;;;;;;;7.60;5.07;;;6.60;99.90;;;;;;5049624;28;20234;-60
2023/02/20 03:27:41;;;;;;;8.17;5.30;;;6.60;99.90;;;;;;5049062;28;20220;-60
2023/02/20 03:30:17;;;;;;;6.47;5.43;;;6.70;99.90;;;;;;5047499;28;20234;-60
2023/02/20 03:44:05;;;;;;;7.67;5.83;;;6.80;99.90;;;;;;5043163;28;20236;-60
2023/02/20 03:46:37;;;;;;;7.77;5.90;;;6.70;99.90;;;;;;5047161;28;20696;-60
2023/02/20 03:49:11;;;;;;;9.20;6.03;;;6.80;99.90;;;;;;5038405;28;20688;-60
2023/02/20 03:51:58;;;;;;;7.10;6.20;;;6.80;99.90;;;;;;5033954;28;20268;-60
2023/02/20 03:54:36;;;;;;;7.53;6.00;;;6.80;99.90;;;;;;5034049;28;20233;-60
2023/02/20 03:57:09;;;;;;;7.90;6.17;;;6.80;99.90;;;;;;5034104;28;20221;-60
2023/02/20 03:59:43;;;;;;;10.30;6.57;;;6.80;99.90;;;;;;5033867;28;20254;-60
2023/02/20 04:02:17;;;;;;;10.30;7.37;;;6.80;99.90;;;;;;5033612;28;20315;-57
2023/02/20 04:04:51;;;;;;;9.57;6.67;;;6.80;99.90;;;;;;5033073;28;20722;-58
2023/02/20 04:07:24;;;;;;;7.53;6.57;;;6.80;99.90;;;;;;5031323;28;20227;-58
2023/02/20 04:09:57;;;;;;;10.10;6.90;;;6.80;99.90;;;;;;5033825;28;20221;-58
2023/02/20 04:12:29;;;;;;;9.37;7.60;;;6.80;99.90;;;;;;5031086;28;20588;-58
2023/02/20 04:15:00;;;;;;;8.93;7.50;;;6.70;99.90;;;;;;5034860;28;20587;-58
2023/02/20 04:17:31;;;;;;;12.03;8.10;;;6.90;99.90;;;;;;5034865;28;20227;-58
2023/02/20 04:20:00;;;;;;;11.40;8.33;;;6.80;99.90;;;;;;5024910;28;20225;-58
2023/02/20 04:22:35;;;;;;;10.47;8.43;;;6.80;99.90;;;;;;5017146;28;20319;-58
2023/02/20 04:25:12;;;;;;;12.90;9.47;;;6.70;99.90;;;;;;5023747;28;20282;-58
2023/02/20 04:27:42;;;;;;;13.37;9.13;;;6.80;99.90;;;;;;5033017;28;20216;-58
2023/02/20 04:30:11;;;;;;;10.63;8.47;;;6.70;99.90;;;;;;5033528;28;20255;-58
2023/02/20 04:32:39;;;;;;;12.80;9.00;;;6.70;99.90;;;;;;5033919;28;20279;-58
2023/02/20 04:35:10;;;;;;;12.77;8.30;;;6.80;99.90;;;;;;5031974;28;20236;-58
2023/02/20 04:37:38;;;;;;;10.27;9.17;;;6.80;99.90;;;;;;5032913;28;20245;-59
2023/02/20 04:40:07;;;;;;;12.23;9.20;;;6.80;99.90;;;;;;5033248;28;20600;-58
2023/02/20 04:42:35;;;;;;;13.37;10.50;;;6.70;99.90;;;;;;5033181;28;20221;-58
2023/02/20 04:45:05;;;;;;;14.87;9.60;;;6.70;99.90;;;;;;5033044;28;20609;-57
2023/02/20 04:47:33;;;;;;;12.50;9.37;;;6.70;99.90;;;;;;5032874;28;20224;-58
2023/02/20 04:50:01;;;;;;;13.23;9.93;;;6.70;99.90;;;;;;5033166;28;20604;-58
2023/02/20 04:52:30;;;;;;;11.83;9.27;;;6.70;99.90;;;;;;5032953;28;20315;-58
2023/02/20 04:54:58;;;;;;;13.70;9.60;;;6.70;99.90;;;;;;5032836;28;20782;-58
2023/02/20 04:57:26;;;;;;;12.90;8.97;;;6.70;99.90;;;;;;5034346;28;20749;-58
2023/02/20 04:59:54;;;;;;;14.17;9.60;;;6.80;99.90;;;;;;5032008;28;20228;-58
2023/02/20 05:02:24;;;;;;;11.70;9.47;;;6.80;99.90;;;;;;5033705;28;20241;-58
2023/02/20 05:04:52;;;;;;;14.87;10.40;;;6.70;99.90;;;;;;5034320;28;20577;-58
2023/02/20 05:07:20;;;;;;;11.90;9.63;;;6.80;99.90;;;;;;5033832;28;20235;-58
2023/02/20 05:09:48;;;;;;;13.13;10.40;;;6.70;99.90;;;;;;5022491;28;20685;-57
2023/02/20 05:12:16;;;;;;;14.50;10.97;;;6.80;99.90;;;;;;5014520;28;20241;-58
2023/02/20 05:14:44;;;;;;;14.37;11.10;;;6.70;99.90;;;;;;5026391;28;20232;-59
2023/02/20 05:17:12;;;;;;;18.00;10.77;;;6.80;99.90;;;;;;5033844;28;20688;-58
2023/02/20 05:19:41;;;;;;;11.87;9.23;;;6.80;99.90;;;;;;5033761;28;20216;-58
2023/02/20 05:22:19;;;;;;;13.53;10.40;;;6.80;99.90;;;;;;5033862;28;20220;-58
2023/02/20 05:24:49;;;;;;;14.13;10.67;;;6.80;99.90;;;;;;5033268;28;20573;-58
2023/02/20 05:27:20;;;;;;;15.00;10.57;;;6.80;99.90;;;;;;5034099;28;20229;-58
2023/02/20 05:29:49;;;;;;;12.80;10.30;;;6.80;99.90;;;;;;5033444;28;20569;-58
2023/02/20 05:32:18;;;;;;;16.23;12.07;;;6.80;99.90;;;;;;5032898;28;20726;-58
2023/02/20 05:34:48;;;;;;;16.67;10.90;;;6.80;99.90;;;;;;5032239;28;20707;-58
2023/02/20 05:37:17;;;;;;;18.70;12.10;;;6.80;99.90;;;;;;5035752;28;20248;-58
2023/02/20 05:39:46;;;;;;;15.00;11.27;;;6.80;99.90;;;;;;5033573;28;20248;-58
2023/02/20 05:42:15;;;;;;;16.10;10.63;;;6.80;99.90;;;;;;5033716;28;20684;-58
2023/02/20 05:44:43;;;;;;;20.57;11.30;;;6.80;99.90;;;;;;5031152;28;20558;-58
2023/02/20 05:47:11;;;;;;;16.17;11.07;;;6.90;99.90;;;;;;5025213;28;20225;-58
2023/02/20 05:49:39;;;;;;;19.47;12.03;;;6.90;99.90;;;;;;5033086;28;20240;-58
2023/02/20 05:52:11;;;;;;;18.20;11.07;;;6.90;99.90;;;;;;5033096;28;20228;-58
2023/02/20 05:54:40;;;;;;;18.07;11.53;;;6.80;99.90;;;;;;5028879;28;20232;-59
2023/02/20 05:57:11;;;;;;;15.00;11.43;;;6.90;99.90;;;;;;5032534;28;20254;-58
2023/02/20 05:59:39;;;;;;;17.57;11.73;;;6.90;99.90;;;;;;5020821;28;20225;-58
2023/02/20 06:02:07;;;;;;;16.33;11.77;;;6.90;99.90;;;;;;5018363;28;20232;-58
2023/02/20 06:04:35;;;;;;;18.40;12.27;;;6.90;99.90;;;;;;5013493;28;20717;-58
2023/02/20 06:07:03;;;;;;;15.83;11.97;;;7.00;99.90;;;;;;5023185;28;20286;-58
2023/02/20 06:09:33;;;;;;;16.40;11.97;;;6.90;99.90;;;;;;5033028;28;20707;-58
2023/02/20 06:12:01;;;;;;;16.93;11.80;;;6.90;99.90;;;;;;5019217;28;20297;-58
2023/02/20 06:14:29;;;;;;;18.47;11.27;;;6.90;99.90;;;;;;5023351;28;20237;-58
2023/02/20 06:16:57;;;;;;;16.87;11.87;;;6.90;99.90;;;;;;5033078;28;20703;-58
2023/02/20 06:19:26;;;;;;;18.83;12.13;;;6.90;99.90;;;;;;5032752;28;20235;-58
2023/02/20 06:21:57;;;;;;;17.07;12.07;;;6.90;99.90;;;;;;5022938;28;20232;-58
2023/02/20 06:24:25;;;;;;;17.77;11.97;;;7.00;99.90;;;;;;5022770;28;20233;-58
2023/02/20 06:26:55;;;;;;;17.17;12.17;;;7.00;99.90;;;;;;5031523;28;20229;-58
2023/02/20 06:29:23;;;;;;;18.80;11.80;;;7.00;99.90;;;;;;5032901;28;20244;-58
2023/02/20 06:31:51;;;;;;;16.77;12.23;;;7.00;99.90;;;;;;5031649;28;20248;-58
2023/02/20 06:34:19;;;;;;;18.93;13.30;;;7.10;99.90;;;;;;5032655;28;20225;-58
2023/02/20 06:36:47;;;;;;;20.53;13.47;;;7.00;99.90;;;;;;5032395;28;20248;-58
2023/02/20 06:39:16;;;;;;;18.00;14.83;;;7.10;99.90;;;;;;5032869;28;20224;-58
2023/02/20 06:41:44;;;;;;;20.10;14.13;;;7.10;99.90;;;;;;5032494;28;20720;-58
2023/02/20 06:44:13;;;;;;;18.83;14.23;;;7.10;99.90;;;;;;5028208;28;20220;-58
2023/02/20 06:46:42;;;;;;;20.90;14.63;;;7.10;99.90;;;;;;5032489;28;20274;-58
2023/02/20 06:49:10;;;;;;;20.67;15.20;;;7.10;99.90;;;;;;5032398;28;20355;-58
2023/02/20 06:51:40;;;;;;;23.97;15.20;;;7.10;99.90;;;;;;5015045;28;20279;-58
2023/02/20 06:54:11;;;;;;;21.87;14.73;;;7.10;99.90;;;;;;5032459;28;20307;-58
2023/02/20 06:56:39;;;;;;;20.67;15.13;;;7.10;99.90;;;;;;5028086;28;20228;-59
2023/02/20 06:59:08;;;;;;;20.30;14.57;;;7.10;99.90;;;;;;5032327;28;20232;-58
2023/02/20 07:01:42;;;;;;;21.87;15.57;;;7.10;99.90;;;;;;5031485;28;20243;-58
2023/02/20 07:04:16;;;;;;;22.50;16.17;;;7.20;99.90;;;;;;5032352;28;20282;-58
2023/02/20 07:06:44;;;;;;;23.70;16.10;;;7.20;99.90;;;;;;5031316;28;21265;-58
2023/02/20 07:09:13;;;;;;;21.27;16.43;;;7.20;99.90;;;;;;5024509;28;20232;-58
2023/02/20 07:11:41;;;;;;;23.20;16.77;;;7.20;99.90;;;;;;5012343;28;20229;-59
2023/02/20 07:14:09;;;;;;;25.37;17.63;;;7.30;99.90;;;;;;5020485;28;20227;-59
2023/02/20 07:16:37;;;;;;;26.20;16.90;;;7.30;99.90;;;;;;5031946;28;20227;-59
2023/02/20 07:19:07;;;;;;;26.60;16.60;;;7.30;99.90;;;;;;5032459;28;20677;-59
2023/02/20 07:21:35;;;;;;;26.17;17.57;;;7.30;99.90;;;;;;5032321;28;20604;-59
2023/02/20 07:24:04;;;;;;;24.33;18.07;;;7.30;99.90;;;;;;5031566;28;20585;-58
2023/02/20 07:26:34;;;;;;;28.63;18.30;;;7.30;99.90;;;;;;5033512;28;20611;-59
2023/02/20 07:29:03;;;;;;;25.20;16.73;;;7.40;99.90;;;;;;5035775;28;20235;-58
2023/02/20 07:31:34;;;;;;;29.10;19.50;;;7.30;99.90;;;;;;5035427;28;20724;-59
2023/02/20 07:34:04;;;;;;;25.10;18.30;;;7.40;99.90;;;;;;5032134;28;20228;-59
2023/02/20 07:36:40;;;;;;;26.33;18.03;;;7.40;99.90;;;;;;5029279;28;20276;-59
2023/02/20 07:39:12;;;;;;;21.27;17.93;;;7.40;99.90;;;;;;5027810;28;20228;-59
2023/02/20 07:41:41;;;;;;;23.50;18.80;;;7.40;99.90;;;;;;5034354;28;20232;-59
2023/02/20 07:44:29;;;;;;;25.07;17.40;;;7.40;99.90;;;;;;5026729;28;20662;-59
2023/02/20 07:46:57;;;;;;;28.10;18.90;;;7.40;99.90;;;;;;5024601;28;20228;-59
2023/02/20 07:49:25;;;;;;;27.50;20.10;;;7.50;99.90;;;;;;5032932;28;20252;-59
2023/02/20 07:51:55;;;;;;;25.30;19.33;;;7.50;99.90;;;;;;5026799;28;20225;-59
2023/02/20 07:54:23;;;;;;;23.43;18.20;;;7.60;99.90;;;;;;5021660;28;20272;-59
2023/02/20 07:56:51;;;;;;;24.97;19.70;;;7.60;99.90;;;;;;5041739;28;20228;-59
2023/02/20 07:59:19;;;;;;;27.80;19.70;;;7.60;99.90;;;;;;5035356;28;20225;-59
2023/02/20 08:01:47;;;;;;;28.87;19.00;;;7.60;99.90;;;;;;5034628;28;20245;-59
2023/02/20 08:04:16;;;;;;;27.73;19.27;;;7.60;99.90;;;;;;5035302;28;20259;-59
2023/02/20 08:06:44;;;;;;;28.97;20.23;;;7.70;99.90;;;;;;5027051;28;20222;-59
2023/02/20 08:09:13;;;;;;;25.33;18.83;;;7.70;99.90;;;;;;5035022;28;20217;-59
2023/02/20 08:11:41;;;;;;;31.07;19.33;;;7.70;99.90;;;;;;5034952;28;20243;-59
2023/02/20 08:14:09;;;;;;;32.67;20.57;;;7.70;99.90;;;;;;5030618;28;20229;-59
2023/02/20 08:16:37;;;;;;;28.30;19.00;;;7.70;99.90;;;;;;5034943;28;20229;-60
2023/02/20 08:19:05;;;;;;;25.50;19.30;;;7.80;99.90;;;;;;5026537;28;20549;-60
2023/02/20 08:21:34;;;;;;;28.00;20.07;;;7.80;99.90;;;;;;5022264;28;20283;-59
2023/02/20 08:24:02;;;;;;;26.00;18.37;;;7.80;99.90;;;;;;5037840;28;20228;-59
2023/02/20 08:26:33;;;;;;;30.50;19.37;;;7.80;99.90;;;;;;5037179;28;20266;-60
2023/02/20 08:29:01;;;;;;;32.33;19.47;;;7.80;99.90;;;;;;5030282;28;20286;-59
2023/02/20 08:31:30;;;;;;;31.87;20.07;;;7.90;99.90;;;;;;5024307;28;20233;-59
2023/02/20 08:34:00;;;;;;;28.20;19.77;;;7.90;99.90;;;;;;5028055;28;20300;-59
2023/02/20 08:36:29;;;;;;;29.97;19.37;;;8.00;99.90;;;;;;5028232;28;20600;-60
2023/02/20 08:38:58;;;;;;;32.87;19.97;;;8.00;99.90;;;;;;5039835;28;20331;-59
2023/02/20 08:41:27;;;;;;;30.07;19.87;;;8.00;99.90;;;;;;5028448;28;20229;-59
2023/02/20 08:43:57;;;;;;;29.77;18.93;;;8.00;99.90;;;;;;5030221;28;20582;-59
2023/02/20 08:46:25;;;;;;;32.47;19.30;;;8.00;99.90;;;;;;5034427;28;20715;-60
2023/02/20 08:48:53;;;;;;;29.40;20.03;;;8.00;99.90;;;;;;5034350;28;20225;-59
2023/02/20 08:51:21;;;;;;;32.43;20.50;;;8.00;99.90;;;;;;5034546;28;20247;-59
2023/02/20 08:53:49;;;;;;;35.90;19.23;;;8.00;99.90;;;;;;5034455;28;20224;-59
2023/02/20 08:56:19;;;;;;;30.53;19.53;;;8.10;99.90;;;;;;5034264;28;20236;-59
2023/02/20 08:58:47;;;;;;;28.37;19.27;;;8.10;99.90;;;;;;5032857;28;20225;-59
2023/02/20 09:01:16;;;;;;;26.60;18.53;;;8.10;99.90;;;;;;5033657;28;20226;-59
2023/02/20 09:03:44;;;;;;;33.27;18.00;;;8.20;99.90;;;;;;5033967;28;20271;-60
2023/02/20 09:06:12;;;;;;;32.70;17.93;;;8.20;99.90;;;;;;5025498;28;20228;-59
2023/02/20 09:08:41;;;;;;;27.40;18.60;;;8.20;99.90;;;;;;5033672;28;20221;-60
2023/02/20 09:11:09;;;;;;;30.47;18.77;;;8.20;99.90;;;;;;5029253;28;20696;-59
2023/02/20 09:13:42;;;;;;;28.13;17.90;;;8.20;99.90;;;;;;5020246;28;20229;-60
2023/02/20 09:16:10;;;;;;;30.07;17.30;;;8.20;99.90;;;;;;5027727;28;20645;-61
2023/02/20 09:18:40;;;;;;;29.10;17.80;;;8.30;99.90;;;;;;5027202;28;20672;-60
2023/02/20 09:21:10;;;;;;;26.00;17.33;;;8.40;99.90;;;;;;5028365;28;20227;-59
2023/02/20 09:23:38;;;;;;;25.23;17.80;;;8.40;99.90;;;;;;5028467;28;20233;-60
2023/02/20 09:26:06;;;;;;;27.67;17.47;;;8.40;99.90;;;;;;5028542;28;20258;-59
2023/02/20 09:28:34;;;;;;;31.27;18.23;;;8.40;99.90;;;;;;5028668;28;20228;-59
2023/02/20 09:31:03;;;;;;;29.37;16.30;;;8.40;99.90;;;;;;5026258;28;20233;-59
2023/02/20 09:33:31;;;;;;;28.03;17.10;;;8.40;99.90;;;;;;5026472;28;20221;-60
2023/02/20 09:36:01;;;;;;;24.50;15.97;;;8.50;99.90;;;;;;5028932;28;20227;-60
2023/02/20 09:38:29;;;;;;;23.23;15.93;;;8.50;99.90;;;;;;5028322;28;20317;-60
2023/02/20 09:40:59;;;;;;;25.57;14.57;;;8.50;99.90;;;;;;5027188;28;20243;-60
2023/02/20 09:43:44;;;;;;;28.17;14.97;;;8.50;99.90;;;;;;5027910;28;20236;-60
2023/02/20 09:46:15;;;;;;;22.50;13.43;;;8.60;99.90;;;;;;5026951;28;20216;-60
2023/02/20 09:49:00;;;;;;;25.60;13.73;;;8.60;99.90;;;;;;5027052;28;20593;-60
2023/02/20 09:51:33;;;;;;;23.10;13.57;;;8.60;99.90;;;;;;5028465;28;20233;-60
2023/02/20 09:54:05;;;;;;;24.33;14.67;;;8.70;99.90;;;;;;5028209;28;20228;-60
2023/02/20 09:56:36;;;;;;;25.80;13.73;;;8.70;99.90;;;;;;5028447;28;20243;-60
2023/02/20 09:59:10;;;;;;;25.30;12.73;;;8.60;99.90;;;;;;5028208;28;20216;-60
2023/02/20 10:01:43;;;;;;;22.57;13.63;;;8.70;99.90;;;;;;5028552;28;20229;-60
2023/02/20 10:04:15;;;;;;;21.77;11.83;;;8.70;99.90;;;;;;5027905;28;20229;-60
2023/02/20 10:06:46;;;;;;;20.23;12.53;;;8.70;99.90;;;;;;5028448;28;21902;-59
2023/02/20 10:09:16;;;;;;;23.67;12.57;;;8.80;99.90;;;;;;5026012;28;20701;-60
2023/02/20 10:11:59;;;;;;;20.50;12.93;;;8.80;99.90;;;;;;5027087;28;20229;-59
2023/02/20 10:14:52;;;;;;;19.00;12.20;;;8.80;99.90;;;;;;5026758;28;20236;-60
2023/02/20 10:17:33;;;;;;;18.63;12.10;;;8.90;99.90;;;;;;5028396;28;20228;-60
2023/02/20 10:20:09;;;;;;;24.17;12.20;;;8.80;99.90;;;;;;5028198;28;20718;-60
2023/02/20 10:22:48;;;;;;;19.40;11.47;;;8.90;99.90;;;;;;5028642;28;20229;-60
2023/02/20 10:25:23;;;;;;;19.03;12.10;;;8.90;99.90;;;;;;5026792;28;20229;-60
2023/02/20 10:27:59;;;;;;;18.33;11.43;;;9.00;99.90;;;;;;5028197;28;20711;-60
2023/02/20 10:30:31;;;;;;;19.33;11.07;;;9.00;99.90;;;;;;5027185;28;20695;-60
2023/02/20 10:33:11;;;;;;;16.07;10.40;;;8.90;99.90;;;;;;5027949;28;20279;-60
2023/02/20 10:35:45;;;;;;;18.50;11.57;;;9.00;99.90;;;;;;5028345;28;20228;-60
2023/02/20 10:38:19;;;;;;;13.83;10.10;;;9.00;99.90;;;;;;5025846;28;20732;-60
2023/02/20 10:40:51;;;;;;;21.23;10.67;;;9.00;99.90;;;;;;5027561;28;20224;-60
2023/02/20 10:43:23;;;;;;;16.03;10.27;;;9.10;99.90;;;;;;5027194;28;20274;-60
2023/02/20 10:45:58;;;;;;;16.40;9.47;;;9.10;99.90;;;;;;5028168;28;20237;-60
2023/02/20 10:48:31;;;;;;;22.43;10.07;;;9.10;99.90;;;;;;5027138;28;20572;-60
2023/02/20 10:51:06;;;;;;;18.13;9.50;;;9.10;99.90;;;;;;5027494;28;20232;-60
2023/02/20 10:53:40;;;;;;;14.47;9.17;;;9.10;99.90;;;;;;5026789;28;20217;-60
2023/02/20 10:56:11;;;;;;;16.17;9.27;;;9.10;99.90;;;;;;5028200;28;20228;-60
2023/02/20 10:58:45;;;;;;;17.20;8.83;;;9.10;99.90;;;;;;5028993;28;20228;-60
2023/02/20 11:01:19;;;;;;;17.10;8.40;;;9.10;99.90;;;;;;5031476;28;20232;-60
2023/02/20 11:03:52;;;;;;;14.80;9.13;;;9.10;99.90;;;;;;5031336;28;20236;-60
2023/02/20 11:06:25;;;;;;;12.23;7.33;;;9.20;99.90;;;;;;5032351;28;20247;-60
2023/02/20 11:08:56;;;;;;;12.63;8.30;;;9.20;99.90;;;;;;5031283;28;20252;-60
2023/02/20 11:11:30;;;;;;;12.10;7.23;;;9.20;99.90;;;;;;5030727;28;20622;-60
2023/02/20 11:14:00;;;;;;;11.47;7.30;;;9.30;99.90;;;;;;5031982;28;20244;-60
2023/02/20 11:16:33;;;;;;;11.20;7.07;;;9.30;99.90;;;;;;5030069;28;20731;-60
2023/02/20 11:19:12;;;;;;;12.07;6.73;;;9.30;99.90;;;;;;5030602;28;20308;-61
2023/02/20 11:21:42;;;;;;;10.00;5.93;;;9.30;99.90;;;;;;5031163;28;20220;-60
2023/02/20 11:24:33;;;;;;;11.67;6.23;;;9.40;99.90;;;;;;5031244;28;20692;-60
2023/02/20 11:27:05;;;;;;;9.40;6.73;;;9.30;99.90;;;;;;5031452;28;20229;-60
2023/02/20 11:29:41;;;;;;;9.33;6.13;;;9.40;99.90;;;;;;5031149;28;20766;-60
2023/02/20 11:32:28;;;;;;;10.10;6.83;;;9.40;99.90;;;;;;5030716;28;20231;-60
2023/02/20 11:35:20;;;;;;;11.63;5.70;;;9.40;99.90;;;;;;5028765;28;20225;-60
2023/02/20 11:37:50;;;;;;;11.90;5.73;;;9.40;99.90;;;;;;5030199;28;20232;-60
2023/02/20 11:40:28;;;;;;;13.03;5.70;;;9.50;99.90;;;;;;5030195;28;20232;-60
2023/02/20 11:42:56;;;;;;;13.20;6.03;;;9.50;99.90;;;;;;5028383;28;20218;-60
2023/02/20 11:45:26;;;;;;;8.97;5.23;;;9.60;99.90;;;;;;5027958;28;20316;-60
2023/02/20 11:48:08;;;;;;;10.47;5.37;;;9.60;99.90;;;;;;5029787;28;20237;-60
2023/02/20 11:50:41;;;;;;;13.10;5.33;;;9.60;99.90;;;;;;5030108;28;20243;-60
2023/02/20 11:53:20;;;;;;;7.97;4.87;;;9.60;99.90;;;;;;5029188;28;20225;-60
2023/02/20 11:56:11;;;;;;;7.80;5.40;;;9.70;99.90;;;;;;5029089;28;20244;-60
2023/02/20 11:58:40;;;;;;;12.70;5.60;;;9.70;99.90;;;;;;5030585;28;20209;-60
2023/02/20 12:01:29;;;;;;;10.30;5.67;;;9.70;99.90;;;;;;5028781;28;20282;-60
2023/02/20 12:03:59;;;;;;;10.20;5.00;;;9.70;99.90;;;;;;5028672;28;20239;-60
2023/02/20 12:06:41;;;;;;;11.53;5.40;;;9.70;99.90;;;;;;5027014;28;20228;-60
2023/02/20 12:09:15;;;;;;;10.47;5.23;;;9.70;99.90;;;;;;5028006;28;20221;-60
2023/02/20 12:11:44;;;;;;;9.00;4.80;;;9.80;99.90;;;;;;5028906;28;20227;-61
2023/02/20 12:14:15;;;;;;;11.10;4.57;;;9.80;99.90;;;;;;5030212;28;20226;-60
2023/02/20 12:17:08;;;;;;;8.57;4.80;;;9.90;99.90;;;;;;5029046;28;20216;-61
2023/02/20 12:19:47;;;;;;;8.57;4.87;;;9.90;99.90;;;;;;5029758;28;20243;-61
2023/02/20 12:22:22;;;;;;;7.90;4.50;;;9.90;99.90;;;;;;5028171;28;20217;-60
2023/02/20 12:25:07;;;;;;;9.60;5.10;;;9.90;99.90;;;;;;5027537;28;20225;-60
2023/02/20 12:27:49;;;;;;;11.70;4.97;;;9.90;99.90;;;;;;5027082;28;20220;-60
2023/02/20 12:30:29;;;;;;;8.90;5.07;;;9.90;99.90;;;;;;5027273;28;20745;-61
2023/02/20 12:33:13;;;;;;;8.87;4.40;;;9.90;99.90;;;;;;5025470;28;20239;-60
2023/02/20 12:35:55;;;;;;;9.10;4.97;;;9.90;99.90;;;;;;5025304;28;20225;-60
2023/02/20 12:38:38;;;;;;;9.97;4.50;;;9.90;99.90;;;;;;5026316;28;20237;-60
2023/02/20 12:41:27;;;;;;;8.67;4.17;;;10.00;99.90;;;;;;5027447;28;20240;-60
2023/02/20 12:44:22;;;;;;;9.70;4.97;;;10.00;99.90;;;;;;5028473;28;20221;-60
2023/02/20 12:47:00;;;;;;;8.67;4.23;;;10.00;99.90;;;;;;5028201;28;20222;-60
2023/02/20 12:49:45;;;;;;;10.83;4.90;;;10.00;99.90;;;;;;5029202;28;20929;-60
2023/02/20 12:52:30;;;;;;;9.20;4.40;;;9.90;99.90;;;;;;5025765;28;20240;-60
2023/02/20 12:55:05;;;;;;;10.17;4.50;;;10.00;99.90;;;;;;5025147;28;20236;-60
2023/02/20 12:57:42;;;;;;;11.77;4.40;;;10.00;99.90;;;;;;5028614;28;20228;-60
2023/02/20 13:00:25;;;;;;;8.33;4.13;;;9.90;99.90;;;;;;5030130;28;20229;-60
2023/02/20 13:03:00;;;;;;;12.47;4.47;;;9.90;99.90;;;;;;5029719;28;20240;-60
2023/02/20 13:05:28;;;;;;;8.53;4.37;;;9.90;99.90;;;;;;5028269;28;20220;-60
2023/02/20 13:08:02;;;;;;;9.70;4.43;;;10.00;99.90;;;;;;5028128;28;20222;-60
2023/02/20 13:10:34;;;;;;;10.27;4.73;;;9.90;99.90;;;;;;5029074;28;20228;-60
2023/02/20 13:13:02;;;;;;;7.97;4.47;;;10.00;99.90;;;;;;5027291;28;20933;-60
2023/02/20 13:15:38;;;;;;;11.30;4.53;;;10.00;99.90;;;;;;5025716;28;20243;-61
2023/02/20 13:18:19;;;;;;;8.53;4.30;;;10.00;99.90;;;;;;5028045;28;20244;-60
2023/02/20 13:20:51;;;;;;;8.63;4.87;;;9.90;99.90;;;;;;5026558;28;20588;-61
2023/02/20 13:23:32;;;;;;;6.97;4.77;;;9.90;99.90;;;;;;5024494;28;20224;-60
2023/02/20 13:26:00;;;;;;;8.63;4.60;;;10.00;99.90;;;;;;5028234;28;20260;-61
2023/02/20 13:28:44;;;;;;;9.57;5.40;;;9.90;99.90;;;;;;5026436;28;20228;-61